Shakopee, MN

6:16 PM CDT on May 29, 2015 (GMT -0500)
KMNSHAKO1 | | Change Station
CLOSE
Current Station
Personal Weather Station
Location: Shakopee, MN
Elevation: 807 ft
Nearby Weather Stations

Elev 807 ft 44.78 °N, 93.53 °W | Updated 1 minute ago

Rain
Rain
63.1 °F
Feels Like 63.1 °F
N
0.0
Wind Variable Wind from WNW
Gusts 3.4 mph

Today
High -- | Low -- °F
--% Chance of Precip.
Yesterday
High -- | Low -- °F
Precip. -- in
5:33 AM 8:50 PM
Waxing Gibbous, 86% visible
Pressure 29.90 in
Visibility 9.0 miles
Clouds Mostly Cloudy 900 ft
Overcast 1500 ft
Dew Point 59 °F
Humidity 87%
Rainfall 0.20 in
Snow Depth Not available.
UV 1 out of 12
Pollen .90 out of 12
Air Quality Not available.
Flu Activity Sporadic
METAR KFCM 292253Z 35010KT 9SM -RA BKN009 OVC015 17/16 A2990 RMK AO2 CIG 007V013 SLP124 P0002 T01720161

More Conditions Fewer Conditions

Pressure 29.90 in
Visibility 9.0 miles
Clouds Mostly Cloudy 900 ft
Overcast 1500 ft
Dew Point 59 °F
Humidity 87%
Rainfall 0.20 in
Snow Depth Not available.
UV 1 out of 12
Pollen .90 out of 12
Air Quality Not available.
Flu Activity Sporadic
METAR KFCM 292253Z 35010KT 9SM -RA BKN009 OVC015 17/16 A2990 RMK AO2 CIG 007V013 SLP124 P0002 T01720161

More Conditions Fewer Conditions

10-Day Weather Forecast

Almanac

Astronomy

May. 29, 2015 Rise Set
Actual Time
Civil Twilight
Nautical Twilight
Astronomical Twilight
Moon
Length of Visible Light
Length of Day
Tomorrow will be .
, % of the Moon is Illuminated

Today's Extremes

State Highs State Lows

Community

WunderPhotos

Upload Photos

1,825,397 photos uploaded!

WunderBlogs® & News

Nearby

Air Quality

  Air Quality AQ Index Pollutant
Not available.

Snow Depth

Station Depth Elevation

Earthquake Activity

City Distance Mag. Time & Date
Minimum magnitude displayed is 2.5.

Coastal Water Temperatures

Place Temperature

Stations

Nearby Weather Stations

Station Location Temp. Windchill Dew Point Humidity Wind Precip. Elev Updated Type